Time;durP1;ratioP1;P1;durP2;ratioP2;P2;SDS_P1;SDS_P2;PMS_P1;PMS_P2;Temp;Humidity;BMP_temperature;BMP_pressure;BME280_temperature;BME280_humidity;BME280_pressure;Samples;Min_cycle;Max_cycle;Signal;HPM_P1;HPM_P2
2022/07/04 00:07:15;;;;;;;1.70;0.88;;;23.30;58.40;;;;;;20827643;28;20116;-75
2022/07/04 00:17:16;;;;;;;1.48;0.70;;;23.30;58.40;;;;;;20840517;28;20041;-75
2022/07/04 00:27:16;;;;;;;3.92;0.90;;;23.20;58.40;;;;;;20864886;28;20030;-76
2022/07/04 00:37:17;;;;;;;1.08;0.60;;;23.20;58.50;;;;;;20816025;28;20043;-74
2022/07/04 00:47:17;;;;;;;1.67;0.90;;;23.10;58.60;;;;;;21231551;22;20063;-74
2022/07/04 00:57:18;;;;;;;0.52;0.52;;;23.10;58.70;;;;;;20833837;28;20037;-74
2022/07/04 01:07:19;;;;;;;1.33;0.50;;;23.00;58.70;;;;;;20857127;28;20176;-76
2022/07/04 01:17:19;;;;;;;1.65;0.70;;;22.90;58.70;;;;;;20848069;28;20040;-74
2022/07/04 01:27:20;;;;;;;1.83;0.85;;;22.90;58.60;;;;;;20833099;28;20030;-75
2022/07/04 01:37:20;;;;;;;1.23;0.50;;;22.90;58.60;;;;;;20829320;28;20045;-72
2022/07/04 01:47:21;;;;;;;1.67;0.73;;;22.90;58.50;;;;;;20842539;28;20149;-73
2022/07/04 01:57:21;;;;;;;0.45;0.45;;;22.90;58.40;;;;;;20853473;28;20036;-73
2022/07/04 02:07:22;;;;;;;0.55;0.47;;;22.90;58.30;;;;;;20834930;28;20034;-75
2022/07/04 02:17:23;;;;;;;5.82;0.63;;;22.80;58.30;;;;;;20840452;28;20446;-74
2022/07/04 02:27:23;;;;;;;1.67;0.63;;;22.80;58.20;;;;;;20806978;28;20549;-74
2022/07/04 02:37:24;;;;;;;1.23;0.47;;;22.80;58.20;;;;;;20839475;28;20063;-73
2022/07/04 02:47:25;;;;;;;0.40;0.40;;;22.80;58.20;;;;;;20839674;28;20033;-74
2022/07/04 02:57:25;;;;;;;2.08;0.55;;;22.80;58.20;;;;;;20848861;28;20327;-75
2022/07/04 03:07:26;;;;;;;1.45;0.60;;;22.70;58.10;;;;;;20859548;28;20116;-74
2022/07/04 03:17:26;;;;;;;1.95;0.80;;;22.70;58.10;;;;;;20866071;28;20044;-74
2022/07/04 03:27:27;;;;;;;1.00;0.40;;;22.70;58.00;;;;;;20842215;28;20021;-73
2022/07/04 03:37:27;;;;;;;1.48;0.77;;;22.60;57.90;;;;;;20811858;28;20037;-73
2022/07/04 03:47:28;;;;;;;1.13;0.47;;;22.60;57.90;;;;;;20847909;28;20123;-73
2022/07/04 03:57:29;;;;;;;1.00;0.60;;;22.60;57.80;;;;;;20899494;28;20041;-74
2022/07/04 04:07:29;;;;;;;0.35;0.28;;;22.50;57.80;;;;;;20850968;28;20126;-76
2022/07/04 04:17:30;;;;;;;1.00;0.57;;;22.50;57.70;;;;;;20826172;28;20045;-75
2022/07/04 04:27:30;;;;;;;3.30;0.43;;;22.50;57.80;;;;;;20869303;28;20041;-74
2022/07/04 04:37:31;;;;;;;0.60;0.50;;;22.50;57.80;;;;;;20853747;28;20120;-73
2022/07/04 04:47:31;;;;;;;0.77;0.40;;;22.50;57.80;;;;;;20842427;28;20037;-75
2022/07/04 04:57:34;;;;;;;1.48;0.52;;;22.40;57.80;;;;;;20858783;28;20072;-77
2022/07/04 05:07:35;;;;;;;2.05;0.60;;;22.40;57.80;;;;;;20889101;28;20470;-71
2022/07/04 05:17:35;;;;;;;1.70;0.60;;;22.40;57.80;;;;;;20856659;28;20099;-71
2022/07/04 05:27:37;;;;;;;1.42;0.60;;;22.50;57.90;;;;;;20818576;28;20056;-77
2022/07/04 05:37:37;;;;;;;4.32;0.60;;;22.50;58.00;;;;;;20876907;28;20556;-73
2022/07/04 05:47:38;;;;;;;7.47;0.75;;;22.50;58.30;;;;;;20873731;28;20029;-75
2022/07/04 05:57:38;;;;;;;2.85;0.80;;;22.50;58.50;;;;;;20807950;28;20033;-73
2022/07/04 06:07:39;;;;;;;1.80;0.80;;;22.50;58.70;;;;;;20829637;28;20029;-75
2022/07/04 06:17:40;;;;;;;0.70;0.40;;;22.50;58.80;;;;;;20864068;28;20123;-73
2022/07/04 06:27:41;;;;;;;1.23;0.60;;;22.60;58.90;;;;;;20795990;28;20029;-73
2022/07/04 06:37:42;;;;;;;3.28;0.40;;;22.60;58.80;;;;;;20824006;28;20484;-75
2022/07/04 06:47:42;;;;;;;1.60;0.60;;;22.60;58.70;;;;;;20840258;28;20044;-74
2022/07/04 06:57:43;;;;;;;3.72;0.40;;;22.70;58.60;;;;;;20824221;28;20105;-74
2022/07/04 07:07:44;;;;;;;1.55;0.50;;;22.70;58.40;;;;;;20830303;28;20499;-73
2022/07/04 07:17:44;;;;;;;2.50;1.08;;;22.70;58.20;;;;;;20813179;28;20037;-73
2022/07/04 07:27:45;;;;;;;1.23;0.40;;;22.70;57.90;;;;;;20832412;28;20041;-73
2022/07/04 07:37:46;;;;;;;1.13;0.50;;;22.70;57.40;;;;;;20840434;28;20037;-73
2022/07/04 07:47:47;;;;;;;0.98;0.50;;;22.70;57.10;;;;;;20836814;28;20044;-72
2022/07/04 07:57:47;;;;;;;1.15;0.50;;;22.80;57.00;;;;;;20838520;28;20037;-72
2022/07/04 08:07:48;;;;;;;1.63;0.47;;;22.80;56.80;;;;;;20842244;28;20067;-72
2022/07/04 08:17:49;;;;;;;0.28;0.25;;;22.80;56.40;;;;;;20833571;28;20042;-73
2022/07/04 08:27:49;;;;;;;1.45;0.70;;;22.80;56.30;;;;;;20828789;28;20084;-73
2022/07/04 08:37:53;;;;;;;2.28;0.45;;;22.80;56.10;;;;;;20822314;28;20052;-75
2022/07/04 08:48:01;;;;;;;0.38;0.30;;;22.80;55.90;;;;;;20832762;28;20041;-76
2022/07/04 09:08:20;;;;;;;1.42;0.40;;;22.90;55.70;;;;;;20841114;28;20037;-74
2022/07/04 09:18:28;;;;;;;1.40;0.43;;;22.90;55.70;;;;;;20840415;28;20042;-70
2022/07/04 09:28:29;;;;;;;1.35;0.50;;;22.90;55.60;;;;;;20830299;28;20113;-71
2022/07/04 09:38:31;;;;;;;2.10;0.40;;;22.90;55.50;;;;;;20830302;28;20112;-71
2022/07/04 09:48:48;;;;;;;0.63;0.43;;;22.90;55.60;;;;;;20826304;28;20036;-69
2022/07/04 09:58:58;;;;;;;0.85;0.60;;;22.90;55.70;;;;;;20816654;28;20546;-71
2022/07/04 10:09:13;;;;;;;1.40;0.60;;;22.90;55.70;;;;;;20788805;28;20429;-70
2022/07/04 10:19:13;;;;;;;0.47;0.20;;;22.80;55.80;;;;;;20829384;28;20059;-72
2022/07/04 10:29:15;;;;;;;1.73;0.55;;;22.90;56.40;;;;;;20806867;28;20583;-74
2022/07/04 10:39:21;;;;;;;0.63;0.40;;;22.90;55.80;;;;;;20832397;28;20376;-74
2022/07/04 10:49:24;;;;;;;1.67;0.70;;;22.80;55.80;;;;;;20864204;28;20075;-73
2022/07/04 10:59:29;;;;;;;1.40;0.57;;;22.80;55.80;;;;;;20821681;28;20116;-76
2022/07/04 11:09:29;;;;;;;1.40;0.50;;;22.90;55.90;;;;;;20870102;28;20510;-74
2022/07/04 11:19:30;;;;;;;1.07;0.70;;;22.90;55.90;;;;;;20840812;28;20025;-73
2022/07/04 11:29:30;;;;;;;1.27;0.40;;;22.80;55.80;;;;;;20840107;28;20724;-83
2022/07/04 11:39:31;;;;;;;1.27;0.33;;;22.80;55.80;;;;;;20813378;28;20033;-76
2022/07/04 11:49:32;;;;;;;2.13;0.60;;;22.80;55.70;;;;;;20851539;28;20666;-77
2022/07/04 11:59:32;;;;;;;1.42;0.57;;;22.90;55.70;;;;;;20861942;28;20502;-79
2022/07/04 12:09:33;;;;;;;1.52;0.50;;;22.90;55.70;;;;;;20873359;28;20132;-76
2022/07/04 12:19:36;;;;;;;1.10;0.30;;;22.90;55.60;;;;;;20830991;28;20032;-77
2022/07/04 12:29:36;;;;;;;1.65;0.40;;;22.90;55.30;;;;;;20901527;28;20396;-81
2022/07/04 12:39:39;;;;;;;0.30;0.25;;;22.90;55.10;;;;;;20824261;28;20040;-76
2022/07/04 12:49:44;;;;;;;3.30;0.45;;;22.90;54.50;;;;;;20848891;28;20052;-75
2022/07/04 12:59:45;;;;;;;0.68;0.30;;;23.00;54.20;;;;;;20840550;28;20033;-75
2022/07/04 13:09:48;;;;;;;1.17;0.30;;;23.00;53.90;;;;;;20832762;28;20039;-80
2022/07/04 13:19:49;;;;;;;1.73;0.40;;;23.00;53.40;;;;;;20867507;28;20087;-79
2022/07/04 13:29:49;;;;;;;1.90;0.63;;;23.10;53.30;;;;;;20833828;28;20055;-83
2022/07/04 13:39:50;;;;;;;1.45;0.40;;;23.10;53.30;;;;;;20861707;28;20776;-80
2022/07/04 13:49:50;;;;;;;1.52;0.52;;;23.20;53.10;;;;;;20851105;28;20035;-80
2022/07/04 13:59:51;;;;;;;1.00;0.40;;;23.20;53.00;;;;;;20797544;28;20068;-80
2022/07/04 14:09:51;;;;;;;0.73;0.35;;;23.20;53.00;;;;;;20834698;28;20042;-72
2022/07/04 14:19:52;;;;;;;0.60;0.50;;;23.20;52.60;;;;;;20832946;28;20041;-73
2022/07/04 14:29:53;;;;;;;0.90;0.60;;;23.30;52.20;;;;;;20819015;28;20167;-74
2022/07/04 14:39:53;;;;;;;1.95;0.75;;;23.40;52.00;;;;;;20826880;28;20038;-74
2022/07/04 14:49:54;;;;;;;0.70;0.40;;;23.50;51.90;;;;;;20846395;28;20091;-72
2022/07/04 14:59:54;;;;;;;0.70;0.57;;;23.50;51.70;;;;;;20813715;28;20041;-74
2022/07/04 15:09:55;;;;;;;4.05;0.73;;;23.50;52.10;;;;;;20795984;28;20060;-73
2022/07/04 15:30:14;;;;;;;0.60;0.30;;;23.70;52.30;;;;;;20837904;28;20045;-74
2022/07/04 15:40:15;;;;;;;0.50;0.30;;;23.70;51.90;;;;;;20805329;28;20463;-74
2022/07/04 15:50:16;;;;;;;1.25;0.30;;;23.80;51.30;;;;;;20825804;28;20487;-74
2022/07/04 16:00:17;;;;;;;0.85;0.50;;;23.90;51.30;;;;;;20841287;28;20058;-73
2022/07/04 16:10:17;;;;;;;3.22;0.57;;;24.00;51.20;;;;;;20827886;28;20047;-77
2022/07/04 16:20:18;;;;;;;2.75;0.50;;;24.00;51.40;;;;;;20881315;28;20364;-78
2022/07/04 16:30:19;;;;;;;0.80;0.22;;;24.00;51.80;;;;;;20824931;28;20045;-75
2022/07/04 16:40:19;;;;;;;1.45;0.35;;;24.10;52.10;;;;;;20835550;28;20021;-74
2022/07/04 16:50:20;;;;;;;0.95;0.50;;;24.00;52.10;;;;;;20856905;28;20092;-72
2022/07/04 17:00:21;;;;;;;1.00;0.40;;;24.10;52.10;;;;;;20885828;28;20033;-78
2022/07/04 17:10:21;;;;;;;0.25;0.20;;;24.10;52.10;;;;;;20871503;28;20039;-75
2022/07/04 17:20:22;;;;;;;1.58;0.40;;;24.10;51.90;;;;;;20855060;28;20033;-73
2022/07/04 17:30:22;;;;;;;1.80;0.43;;;24.10;51.80;;;;;;20829516;28;20124;-77
2022/07/04 17:40:23;;;;;;;0.73;0.30;;;24.10;51.80;;;;;;20814653;28;20388;-77
2022/07/04 17:50:26;;;;;;;1.07;0.30;;;24.10;51.90;;;;;;20825415;28;20056;-77
2022/07/04 18:00:27;;;;;;;1.20;0.45;;;24.10;51.90;;;;;;20832242;28;20053;-77
2022/07/04 18:10:28;;;;;;;1.48;0.40;;;24.10;51.80;;;;;;20814992;28;20087;-77
2022/07/04 18:20:29;;;;;;;0.45;0.30;;;24.10;51.70;;;;;;20795877;28;20064;-76
2022/07/04 18:30:29;;;;;;;0.40;0.40;;;24.00;51.70;;;;;;20827615;28;20037;-76
2022/07/04 18:50:49;;;;;;;0.50;0.32;;;23.90;52.00;;;;;;20826769;28;20468;-76
2022/07/04 19:00:50;;;;;;;0.40;0.40;;;23.90;52.20;;;;;;20783771;28;20195;-76
2022/07/04 19:10:50;;;;;;;1.60;0.30;;;23.80;52.20;;;;;;20788693;28;20068;-77
2022/07/04 19:20:51;;;;;;;0.82;0.65;;;23.80;52.30;;;;;;20848026;28;20079;-76
2022/07/04 19:30:52;;;;;;;0.38;0.28;;;23.80;52.50;;;;;;20813874;28;20104;-76
2022/07/04 19:40:52;;;;;;;2.97;0.50;;;23.70;52.60;;;;;;20854657;28;20029;-74
2022/07/04 19:50:53;;;;;;;0.85;0.50;;;23.70;52.90;;;;;;20848771;28;20064;-74
2022/07/04 20:00:54;;;;;;;2.33;0.68;;;23.60;52.80;;;;;;20845742;28;20037;-77
2022/07/04 20:10:55;;;;;;;6.53;0.82;;;23.50;52.70;;;;;;20792991;28;20043;-75
2022/07/04 20:20:55;;;;;;;2.72;0.98;;;23.40;53.40;;;;;;20853790;28;20037;-76
2022/07/04 20:30:56;;;;;;;2.90;0.88;;;23.40;52.80;;;;;;20785898;28;20065;-75
2022/07/04 20:40:56;;;;;;;2.15;0.60;;;23.30;52.80;;;;;;20837637;28;20098;-77
2022/07/04 20:50:57;;;;;;;2.87;1.10;;;23.30;52.90;;;;;;20838693;28;20038;-76
2022/07/04 21:00:58;;;;;;;1.65;0.45;;;23.20;52.80;;;;;;20866618;28;20294;-76
2022/07/04 21:10:58;;;;;;;2.17;0.88;;;23.10;52.70;;;;;;20794028;28;20037;-75
2022/07/04 21:20:59;;;;;;;1.70;0.83;;;23.20;52.80;;;;;;20835871;28;20063;-75
2022/07/04 21:30:59;;;;;;;2.95;1.08;;;23.10;52.70;;;;;;20863880;28;20831;-75
2022/07/04 21:41:00;;;;;;;2.10;0.90;;;23.00;53.00;;;;;;20850820;28;20133;-76
2022/07/04 21:51:01;;;;;;;1.73;0.77;;;22.90;53.40;;;;;;20826852;28;20040;-76
2022/07/04 22:01:01;;;;;;;2.70;1.40;;;22.90;53.70;;;;;;20842821;28;20045;-76
2022/07/04 22:11:02;;;;;;;5.50;0.90;;;22.90;53.90;;;;;;20860184;28;20566;-75
2022/07/04 22:21:03;;;;;;;2.33;1.23;;;22.80;54.30;;;;;;20818671;28;20459;-75
2022/07/04 22:31:04;;;;;;;3.40;1.30;;;22.80;54.60;;;;;;20831988;28;20396;-75
2022/07/04 22:41:07;;;;;;;7.40;3.67;;;22.70;54.70;;;;;;20832054;28;20089;-76
2022/07/04 22:51:10;;;;;;;2.92;1.08;;;22.60;54.90;;;;;;20815221;28;20037;-76
2022/07/04 23:01:11;;;;;;;2.50;1.13;;;22.60;55.00;;;;;;20789386;28;20033;-76
2022/07/04 23:11:11;;;;;;;2.55;0.93;;;22.60;55.00;;;;;;20818558;28;20060;-76
2022/07/04 23:21:12;;;;;;;6.43;1.15;;;22.50;55.10;;;;;;20835453;28;20365;-76
2022/07/04 23:31:12;;;;;;;5.05;1.23;;;22.50;55.00;;;;;;20817352;28;20464;-75
2022/07/04 23:41:13;;;;;;;4.07;0.95;;;22.50;54.90;;;;;;20872194;28;20534;-75
2022/07/04 23:51:14;;;;;;;3.17;0.88;;;22.50;54.80;;;;;;20864561;28;20039;-76
